createdAt,value
2019-06-01T00:00:58.000Z,25.34
2019-06-01T00:03:31.459Z,25.38
2019-06-01T00:06:05.461Z,25.43
2019-06-01T00:08:40.184Z,25.44
2019-06-01T00:11:14.681Z,25.46
2019-06-01T00:13:47.821Z,25.49
2019-06-01T00:16:22.741Z,25.51
2019-06-01T00:18:56.045Z,25.55
2019-06-01T00:21:29.190Z,25.55
2019-06-01T00:24:02.565Z,25.56
2019-06-01T00:26:35.978Z,25.56
2019-06-01T00:29:09.186Z,25.55
2019-06-01T00:31:43.038Z,25.55
2019-06-01T00:34:18.684Z,25.57
2019-06-01T00:36:52.042Z,25.60
2019-06-01T00:39:25.245Z,25.61
2019-06-01T00:41:58.486Z,25.61
2019-06-01T00:44:31.705Z,25.61
2019-06-01T00:47:04.843Z,25.63
2019-06-01T00:49:38.037Z,25.67
2019-06-01T00:52:11.181Z,25.73
2019-06-01T00:54:47.246Z,25.76
2019-06-01T00:57:22.223Z,25.74
2019-06-01T00:59:56.630Z,25.74
2019-06-01T01:02:29.774Z,25.70
2019-06-01T01:05:12.213Z,25.68
2019-06-01T01:07:46.583Z,25.66
2019-06-01T01:10:21.245Z,25.63
2019-06-01T01:12:56.192Z,25.56
2019-06-01T01:15:29.386Z,25.54
2019-06-01T01:18:02.809Z,25.47
2019-06-01T01:20:37.440Z,25.45
2019-06-01T01:23:10.539Z,25.41
2019-06-01T01:25:43.782Z,25.40
2019-06-01T01:28:16.872Z,25.33
2019-06-01T01:31:03.124Z,25.30
2019-06-01T01:33:25.038Z,25.28
2019-06-01T01:35:58.456Z,25.26
2019-06-01T01:38:33.169Z,25.23
2019-06-01T01:41:08.051Z,25.22
2019-06-01T01:43:41.428Z,25.17
2019-06-01T01:46:14.652Z,25.13
2019-06-01T01:48:47.801Z,25.06
2019-06-01T01:51:21.012Z,25.01
2019-06-01T01:53:54.726Z,24.99
2019-06-01T01:56:31.348Z,24.97
2019-06-01T01:59:04.672Z,24.94
2019-06-01T02:01:37.787Z,24.92
2019-06-01T02:04:11.065Z,24.92
2019-06-01T02:06:44.451Z,24.92
2019-06-01T02:09:18.474Z,24.89
2019-06-01T02:11:51.518Z,24.88
2019-06-01T02:14:24.784Z,24.84
2019-06-01T02:16:58.159Z,24.85
2019-06-01T02:19:31.357Z,24.80
2019-06-01T02:22:04.743Z,24.77
2019-06-01T02:24:39.432Z,24.63
2019-06-01T02:27:12.632Z,24.70
2019-06-01T02:29:47.297Z,24.65
2019-06-01T02:32:20.899Z,24.63
2019-06-01T02:34:56.444Z,24.62
2019-06-01T02:37:31.366Z,24.61
2019-06-01T02:40:06.048Z,24.62
2019-06-01T02:42:39.269Z,24.65
2019-06-01T02:45:13.202Z,24.63
2019-06-01T02:47:48.753Z,24.61
2019-06-01T02:50:21.947Z,24.59
2019-06-01T02:52:55.560Z,24.61
2019-06-01T02:55:29.077Z,24.64
2019-06-01T02:58:02.510Z,24.66
2019-06-01T03:00:49.325Z,24.65
2019-06-01T03:03:22.521Z,24.62
2019-06-01T03:05:57.440Z,24.60
2019-06-01T03:08:31.005Z,24.64
2019-06-01T03:11:05.938Z,24.65
2019-06-01T03:13:41.208Z,24.70
2019-06-01T03:16:14.749Z,24.75
2019-06-01T03:18:47.944Z,24.78
2019-06-01T03:21:21.098Z,24.78
2019-06-01T03:23:54.381Z,24.77
2019-06-01T03:26:27.513Z,24.73
2019-06-01T03:29:03.612Z,24.69
2019-06-01T03:31:37.816Z,24.64
2019-06-01T03:34:11.557Z,24.63
2019-06-01T03:36:44.844Z,24.68
2019-06-01T03:39:17.956Z,24.71
2019-06-01T03:41:51.060Z,24.72
2019-06-01T03:44:24.459Z,24.71
2019-06-01T03:46:57.723Z,24.72
2019-06-01T03:49:32.104Z,24.65
2019-06-01T03:52:05.271Z,24.64
2019-06-01T03:54:41.004Z,24.64
2019-06-01T03:57:14.081Z,24.66
2019-06-01T03:59:48.947Z,24.67
2019-06-01T04:02:32.739Z,24.66
2019-06-01T04:05:01.046Z,24.69
2019-06-01T04:07:34.512Z,24.71
2019-06-01T04:10:08.060Z,24.64
2019-06-01T04:12:41.276Z,24.65
2019-06-01T04:15:16.815Z,24.66
2019-06-01T04:17:49.708Z,24.66
2019-06-01T04:20:22.774Z,24.62
2019-06-01T04:22:56.094Z,24.61
2019-06-01T04:25:30.747Z,24.60
2019-06-01T04:28:06.256Z,24.53
2019-06-01T04:30:39.565Z,24.56
2019-06-01T04:33:13.254Z,24.66
2019-06-01T04:35:46.395Z,24.77
2019-06-01T04:38:19.507Z,24.82
2019-06-01T04:40:52.804Z,24.86
2019-06-01T04:43:25.968Z,24.91
2019-06-01T04:45:59.202Z,24.98
2019-06-01T04:48:32.411Z,25.02
2019-06-01T04:51:08.795Z,25.00
2019-06-01T04:53:41.935Z,25.09
2019-06-01T04:56:15.293Z,25.18
2019-06-01T04:58:48.720Z,25.25
2019-06-01T05:01:21.743Z,25.31
2019-06-01T05:03:54.926Z,25.36
2019-06-01T05:06:28.080Z,25.36
2019-06-01T05:09:01.400Z,25.37
2019-06-01T05:11:34.848Z,25.41
2019-06-01T05:14:09.572Z,25.49
2019-06-01T05:16:42.838Z,25.53
2019-06-01T05:19:16.664Z,25.62
2019-06-01T05:21:50.079Z,25.71
2019-06-01T05:24:23.428Z,25.75
2019-06-01T05:26:59.252Z,25.84
2019-06-01T05:29:32.575Z,25.89
2019-06-01T05:32:05.815Z,25.94
2019-06-01T05:34:38.970Z,26.01
2019-06-01T05:37:12.383Z,26.06
2019-06-01T05:39:45.485Z,26.13
2019-06-01T05:42:18.995Z,26.16
2019-06-01T05:44:52.301Z,26.20
2019-06-01T05:47:25.387Z,26.26
2019-06-01T05:49:58.514Z,26.34
2019-06-01T05:52:31.650Z,26.36
2019-06-01T05:55:06.511Z,26.42
2019-06-01T05:57:39.579Z,26.49
2019-06-01T06:00:13.207Z,26.58
2019-06-01T06:02:46.401Z,26.62
2019-06-01T06:05:19.523Z,26.65
2019-06-01T06:07:52.669Z,26.70
2019-06-01T06:10:25.825Z,26.74
2019-06-01T06:12:59.228Z,26.78
2019-06-01T06:15:32.414Z,26.82
2019-06-01T06:18:07.159Z,26.87
2019-06-01T06:20:40.484Z,26.96
2019-06-01T06:23:14.239Z,27.00
2019-06-01T06:25:47.493Z,27.08
2019-06-01T06:28:20.822Z,27.18
2019-06-01T06:30:54.010Z,27.29
2019-06-01T06:33:27.233Z,27.39
2019-06-01T06:36:01.551Z,27.47
2019-06-01T06:38:34.797Z,27.55
2019-06-01T06:41:08.066Z,27.59
2019-06-01T06:43:41.155Z,27.64
2019-06-01T06:46:16.658Z,27.68
2019-06-01T06:48:49.722Z,27.74
2019-06-01T06:51:23.362Z,27.82
2019-06-01T06:53:56.680Z,27.95
2019-06-01T06:56:29.788Z,28.08
2019-06-01T06:59:03.004Z,28.17
2019-06-01T07:01:36.151Z,28.28
2019-06-01T07:04:12.785Z,28.41
2019-06-01T07:06:44.222Z,28.55
2019-06-01T07:09:17.865Z,28.68
2019-06-01T07:11:52.252Z,28.82
2019-06-01T07:14:25.553Z,28.96
2019-06-01T07:17:00.256Z,29.07
2019-06-01T07:19:33.532Z,29.20
2019-06-01T07:22:06.822Z,29.29
2019-06-01T07:24:40.077Z,29.39
2019-06-01T07:27:13.207Z,29.47
2019-06-01T07:29:46.286Z,29.58
2019-06-01T07:32:20.218Z,29.70
2019-06-01T07:34:53.397Z,29.71
2019-06-01T07:37:26.555Z,29.67
2019-06-01T07:39:59.769Z,29.56
2019-06-01T07:42:33.203Z,29.63
2019-06-01T07:45:07.059Z,29.70
2019-06-01T07:47:40.337Z,29.67
2019-06-01T07:50:13.643Z,29.87
2019-06-01T07:52:46.884Z,29.87
2019-06-01T07:55:21.465Z,30.27
2019-06-01T07:57:56.572Z,30.53
2019-06-01T08:00:29.763Z,30.75
2019-06-01T08:03:02.982Z,31.07
2019-06-01T08:05:36.069Z,31.48
2019-06-01T08:08:09.218Z,31.90
2019-06-01T08:10:42.599Z,32.58
2019-06-01T08:13:15.819Z,33.29
2019-06-01T08:15:49.028Z,33.91
2019-06-01T08:18:23.925Z,34.47
2019-06-01T08:20:57.128Z,34.91
2019-06-01T08:23:30.396Z,35.54
2019-06-01T08:26:03.433Z,36.15
2019-06-01T08:28:36.563Z,36.75
2019-06-01T08:31:09.752Z,37.10
2019-06-01T08:33:43.021Z,37.60
2019-06-01T08:36:17.296Z,38.06
2019-06-01T08:38:50.429Z,38.62
2019-06-01T08:41:23.506Z,39.05
2019-06-01T08:43:56.805Z,39.54
2019-06-01T08:46:29.899Z,39.83
2019-06-01T08:49:04.684Z,40.27
2019-06-01T08:51:37.841Z,41.17
2019-06-01T08:54:14.016Z,42.48
2019-06-01T08:56:48.703Z,44.51
2019-06-01T08:59:21.841Z,46.31
2019-06-01T09:01:54.905Z,47.70
2019-06-01T09:04:28.816Z,48.48
2019-06-01T09:07:02.020Z,49.60
2019-06-01T09:09:36.167Z,50.19
2019-06-01T09:12:08.618Z,49.92
2019-06-01T09:14:42.998Z,49.24
2019-06-01T09:17:18.658Z,48.59
2019-06-01T09:19:51.161Z,48.01
2019-06-01T09:22:25.786Z,46.98
2019-06-01T09:24:59.005Z,46.37
2019-06-01T09:27:33.950Z,45.48
2019-06-01T09:30:08.293Z,44.53
2019-06-01T09:32:42.784Z,44.18
2019-06-01T09:35:15.948Z,43.49
2019-06-01T09:37:49.159Z,42.94
2019-06-01T09:40:22.229Z,42.42
2019-06-01T09:42:54.648Z,42.03
2019-06-01T09:45:27.888Z,41.43
2019-06-01T09:48:01.146Z,40.93
2019-06-01T09:50:35.554Z,40.75
2019-06-01T09:53:10.237Z,40.50
2019-06-01T09:55:45.009Z,39.67
2019-06-01T09:58:18.357Z,39.59
2019-06-01T10:00:51.701Z,39.44
2019-06-01T10:03:24.870Z,39.50
2019-06-01T10:06:01.983Z,39.59
2019-06-01T10:08:34.325Z,39.47
2019-06-01T10:11:07.747Z,39.28
2019-06-01T10:13:40.887Z,39.22
2019-06-01T10:16:14.059Z,38.89
2019-06-01T10:18:46.610Z,38.85
2019-06-01T10:21:36.154Z,38.77
2019-06-01T10:24:09.384Z,38.80
2019-06-01T10:26:42.455Z,38.68
2019-06-01T10:29:16.688Z,38.63
2019-06-01T10:31:49.961Z,38.39
2019-06-01T10:34:23.175Z,38.38
2019-06-01T10:36:56.330Z,38.38
2019-06-01T10:39:31.134Z,38.43
2019-06-01T10:42:05.731Z,38.48
2019-06-01T10:44:43.387Z,38.44
2019-06-01T10:47:13.069Z,38.44
2019-06-01T10:49:45.573Z,38.36
2019-06-01T10:52:18.598Z,38.35
2019-06-01T10:54:51.616Z,38.21
2019-06-01T10:57:24.862Z,38.22
2019-06-01T10:59:58.029Z,38.21
2019-06-01T11:02:32.542Z,38.23
2019-06-01T11:05:10.419Z,38.11
2019-06-01T11:07:43.747Z,37.97
2019-06-01T11:10:18.011Z,37.95
2019-06-01T11:12:51.253Z,37.94
2019-06-01T11:15:24.559Z,37.82
2019-06-01T11:17:59.002Z,37.68
2019-06-01T11:20:33.037Z,37.58
2019-06-01T11:23:06.416Z,37.71
2019-06-01T11:25:39.738Z,37.89
2019-06-01T11:28:13.098Z,37.95
2019-06-01T11:30:47.533Z,37.81
2019-06-01T11:33:21.799Z,37.73
2019-06-01T11:35:54.991Z,37.71
2019-06-01T11:38:28.152Z,37.75
2019-06-01T11:41:01.364Z,37.74
2019-06-01T11:43:34.687Z,37.76
2019-06-01T11:46:07.971Z,37.76
2019-06-01T11:48:41.452Z,37.62
2019-06-01T11:51:14.709Z,37.45
2019-06-01T11:53:49.708Z,37.37
2019-06-01T11:56:25.405Z,37.38
2019-06-01T11:58:58.602Z,37.51
2019-06-01T12:01:31.888Z,37.43
2019-06-01T12:04:05.266Z,37.32
2019-06-01T12:06:39.726Z,37.34
2019-06-01T12:09:12.934Z,37.46
2019-06-01T12:11:46.487Z,37.36
2019-06-01T12:14:19.701Z,37.29
2019-06-01T12:16:52.780Z,37.30
2019-06-01T12:19:25.958Z,37.38
2019-06-01T12:22:00.310Z,37.56
2019-06-01T12:24:34.600Z,37.45
2019-06-01T12:27:07.827Z,37.06
2019-06-01T12:29:41.483Z,37.09
2019-06-01T12:32:14.782Z,37.14
2019-06-01T12:34:48.460Z,36.70
2019-06-01T12:37:39.820Z,36.60
2019-06-01T12:39:58.904Z,36.66
2019-06-01T12:42:33.727Z,36.80
2019-06-01T12:45:08.835Z,36.66
2019-06-01T12:47:41.894Z,36.85
2019-06-01T12:50:15.419Z,36.84
2019-06-01T12:52:48.698Z,36.95
2019-06-01T12:55:21.887Z,37.07
2019-06-01T12:57:56.129Z,37.17
2019-06-01T13:00:30.534Z,37.25
2019-06-01T13:03:07.648Z,37.26
2019-06-01T13:05:39.766Z,36.93
2019-06-01T13:08:13.139Z,36.85
2019-06-01T13:10:47.208Z,36.99
2019-06-01T13:13:20.456Z,37.00
2019-06-01T13:15:53.617Z,36.98
2019-06-01T13:18:26.779Z,37.09
2019-06-01T13:20:59.904Z,37.27
2019-06-01T13:23:33.213Z,37.32
2019-06-01T13:26:09.916Z,37.31
2019-06-01T13:28:43.982Z,37.44
2019-06-01T13:31:19.376Z,37.78
2019-06-01T13:33:53.709Z,38.12
2019-06-01T13:36:27.937Z,38.35
2019-06-01T13:39:01.095Z,38.10
2019-06-01T13:41:37.125Z,38.02
2019-06-01T13:44:10.343Z,37.97
2019-06-01T13:46:43.654Z,37.75
2019-06-01T13:49:16.973Z,37.57
2019-06-01T13:51:50.465Z,37.53
2019-06-01T13:54:23.866Z,37.49
2019-06-01T13:56:58.996Z,37.47
2019-06-01T13:59:33.280Z,37.41
2019-06-01T14:02:08.157Z,37.33
2019-06-01T14:04:41.348Z,37.34
2019-06-01T14:07:14.598Z,37.30
2019-06-01T14:09:49.020Z,37.32
2019-06-01T14:12:22.243Z,37.24
2019-06-01T14:14:55.671Z,37.28
2019-06-01T14:17:28.849Z,37.33
2019-06-01T14:20:06.823Z,37.31
2019-06-01T14:22:41.678Z,37.30
2019-06-01T14:25:15.601Z,37.19
2019-06-01T14:27:50.396Z,37.17
2019-06-01T14:30:24.224Z,37.18
2019-06-01T14:33:01.206Z,37.08
2019-06-01T14:35:35.800Z,36.93
2019-06-01T14:38:09.403Z,36.80
2019-06-01T14:40:42.565Z,36.70
2019-06-01T14:43:15.813Z,36.57
2019-06-01T14:45:49.637Z,36.53
2019-06-01T14:48:23.104Z,36.46
2019-06-01T14:50:57.800Z,36.21
2019-06-01T14:53:31.098Z,35.97
2019-06-01T14:56:04.511Z,35.70
2019-06-01T14:58:37.946Z,35.20
2019-06-01T15:01:11.191Z,34.79
2019-06-01T15:03:44.492Z,34.44
2019-06-01T15:06:20.740Z,34.26
2019-06-01T15:09:13.172Z,34.28
2019-06-01T15:11:27.583Z,34.38
2019-06-01T15:14:00.675Z,34.48
2019-06-01T15:16:33.811Z,34.46
2019-06-01T15:19:07.010Z,34.45
2019-06-01T15:21:41.184Z,34.45
2019-06-01T15:24:14.390Z,34.53
2019-06-01T15:26:47.736Z,34.55
2019-06-01T15:29:21.049Z,34.46
2019-06-01T15:31:54.285Z,34.26
2019-06-01T15:34:27.433Z,34.16
2019-06-01T15:37:01.774Z,34.04
2019-06-01T15:39:35.419Z,33.94
2019-06-01T15:42:08.730Z,33.86
2019-06-01T15:44:42.044Z,33.80
2019-06-01T15:47:16.754Z,33.69
2019-06-01T15:49:50.002Z,33.52
2019-06-01T15:52:23.348Z,33.42
2019-06-01T15:54:56.541Z,33.35
2019-06-01T15:57:29.761Z,33.24
2019-06-01T16:00:03.727Z,33.18
2019-06-01T16:02:36.249Z,33.06
2019-06-01T16:05:09.515Z,32.90
2019-06-01T16:07:42.705Z,32.76
2019-06-01T16:10:17.007Z,32.63
2019-06-01T16:12:51.378Z,32.47
2019-06-01T16:15:24.620Z,32.33
2019-06-01T16:17:57.988Z,32.11
2019-06-01T16:20:30.973Z,31.85
2019-06-01T16:23:05.196Z,31.61
2019-06-01T16:25:38.719Z,31.41
2019-06-01T16:28:14.337Z,31.13
2019-06-01T16:30:47.552Z,30.81
2019-06-01T16:33:20.783Z,30.42
2019-06-01T16:35:56.912Z,30.16
2019-06-01T16:38:30.319Z,29.85
2019-06-01T16:41:03.596Z,29.56
2019-06-01T16:43:36.761Z,29.35
2019-06-01T16:46:11.116Z,29.24
2019-06-01T16:48:45.268Z,29.15
2019-06-01T16:51:18.471Z,29.09
2019-06-01T16:53:53.299Z,29.00
2019-06-01T16:56:26.715Z,28.92
2019-06-01T16:59:00.196Z,28.84
2019-06-01T17:01:33.467Z,28.76
2019-06-01T17:04:06.714Z,28.73
2019-06-01T17:06:39.930Z,28.66
2019-06-01T17:09:14.365Z,28.49
2019-06-01T17:11:47.619Z,28.30
2019-06-01T17:14:20.972Z,28.11
2019-06-01T17:16:54.308Z,27.91
2019-06-01T17:19:27.681Z,27.83
2019-06-01T17:22:01.456Z,27.77
2019-06-01T17:24:34.759Z,27.74
2019-06-01T17:27:08.275Z,27.71
2019-06-01T17:29:46.618Z,27.75
2019-06-01T17:32:24.558Z,27.80
2019-06-01T17:34:54.842Z,27.83
2019-06-01T17:37:28.135Z,27.85
2019-06-01T17:40:02.524Z,27.87
2019-06-01T17:42:35.914Z,27.83
2019-06-01T17:45:09.617Z,27.72
2019-06-01T17:47:42.848Z,27.67
2019-06-01T17:50:18.250Z,27.50
2019-06-01T17:52:50.972Z,27.41
2019-06-01T17:55:32.005Z,27.37
2019-06-01T17:58:05.774Z,27.39
2019-06-01T18:00:42.103Z,27.44
2019-06-01T18:03:15.460Z,27.45
2019-06-01T18:05:48.870Z,27.48
2019-06-01T18:08:22.345Z,27.46
2019-06-01T18:10:55.615Z,27.44
2019-06-01T18:13:28.689Z,27.42
2019-06-01T18:16:03.002Z,27.39
2019-06-01T18:18:36.694Z,27.35
2019-06-01T18:21:10.404Z,27.33
2019-06-01T18:23:43.800Z,27.40
2019-06-01T18:26:16.914Z,27.49
2019-06-01T18:28:50.102Z,27.45
2019-06-01T18:31:23.353Z,27.40
2019-06-01T18:33:58.911Z,27.43
2019-06-01T18:36:32.187Z,27.47
2019-06-01T18:39:07.588Z,27.55
2019-06-01T18:41:40.980Z,27.58
2019-06-01T18:44:14.348Z,27.64
2019-06-01T18:46:47.615Z,27.66
2019-06-01T18:49:20.901Z,27.69
2019-06-01T18:51:54.094Z,27.72
2019-06-01T18:54:27.328Z,27.74
2019-06-01T18:57:09.647Z,27.76
2019-06-01T18:59:35.499Z,27.80
2019-06-01T19:02:08.673Z,27.83
2019-06-01T19:04:41.935Z,27.84
2019-06-01T19:07:17.538Z,27.87
2019-06-01T19:09:50.868Z,27.89
2019-06-01T19:12:24.550Z,27.89
2019-06-01T19:14:59.041Z,27.91
2019-06-01T19:17:32.150Z,27.92
2019-06-01T19:20:08.490Z,27.91
2019-06-01T19:22:41.734Z,27.88
2019-06-01T19:25:17.847Z,27.70
2019-06-01T19:27:51.055Z,27.62
2019-06-01T19:30:43.610Z,27.60
2019-06-01T19:33:19.173Z,27.55
2019-06-01T19:35:53.114Z,27.61
2019-06-01T19:38:26.492Z,27.60
2019-06-01T19:40:59.739Z,27.60
2019-06-01T19:43:32.878Z,27.60
2019-06-01T19:46:06.115Z,27.61
2019-06-01T19:48:39.280Z,27.60
2019-06-01T19:51:12.524Z,27.61
2019-06-01T19:53:45.765Z,27.61
2019-06-01T19:56:21.866Z,27.55
2019-06-01T19:58:55.624Z,27.50
2019-06-01T20:01:29.092Z,27.46
2019-06-01T20:04:02.486Z,27.33
2019-06-01T20:06:35.785Z,27.06
2019-06-01T20:09:09.176Z,26.75
2019-06-01T20:11:42.470Z,26.40
2019-06-01T20:14:16.435Z,26.14
2019-06-01T20:16:49.525Z,25.97
2019-06-01T20:19:23.103Z,25.70
2019-06-01T20:21:56.104Z,25.40
2019-06-01T20:24:29.430Z,25.18
2019-06-01T20:27:02.770Z,24.98
2019-06-01T20:29:35.956Z,24.70
2019-06-01T20:32:09.262Z,24.50
2019-06-01T20:34:42.549Z,24.31
2019-06-01T20:37:15.936Z,24.25
2019-06-01T20:39:48.989Z,24.26
2019-06-01T20:42:31.746Z,24.24
2019-06-01T20:44:57.164Z,24.24
2019-06-01T20:47:30.540Z,24.23
2019-06-01T20:50:06.161Z,24.26
2019-06-01T20:52:39.364Z,24.27
2019-06-01T20:55:13.161Z,24.27
2019-06-01T20:57:46.569Z,24.22
2019-06-01T21:00:19.877Z,24.11
2019-06-01T21:02:53.063Z,24.01
2019-06-01T21:05:26.366Z,23.98
2019-06-01T21:07:59.636Z,23.99
2019-06-01T21:10:32.559Z,23.94
2019-06-01T21:13:08.163Z,23.80
2019-06-01T21:15:41.584Z,23.76
2019-06-01T21:18:16.157Z,23.71
2019-06-01T21:20:49.441Z,23.70
2019-06-01T21:23:23.092Z,23.63
2019-06-01T21:25:56.207Z,23.61
2019-06-01T21:28:29.588Z,23.63
2019-06-01T21:31:02.800Z,23.61
2019-06-01T21:33:36.039Z,23.52
2019-06-01T21:36:09.245Z,23.43
2019-06-01T21:38:42.544Z,23.48
2019-06-01T21:41:15.697Z,23.45
2019-06-01T21:43:49.017Z,23.42
2019-06-01T21:46:22.314Z,23.41
2019-06-01T21:48:55.545Z,23.39
2019-06-01T21:51:30.538Z,23.28
2019-06-01T21:54:04.708Z,23.06
2019-06-01T21:56:38.060Z,22.94
2019-06-01T21:59:11.184Z,22.87
2019-06-01T22:01:44.446Z,22.84
2019-06-01T22:04:18.683Z,22.73
2019-06-01T22:06:53.050Z,22.62
2019-06-01T22:09:27.420Z,22.58
2019-06-01T22:11:59.929Z,22.54
2019-06-01T22:14:32.953Z,22.54
2019-06-01T22:17:06.306Z,22.55
2019-06-01T22:19:39.607Z,22.54
2019-06-01T22:22:12.868Z,22.48
2019-06-01T22:24:46.063Z,22.42
2019-06-01T22:27:20.088Z,22.40
2019-06-01T22:29:53.404Z,22.41
2019-06-01T22:32:29.991Z,22.42
2019-06-01T22:35:01.809Z,22.46
2019-06-01T22:37:35.103Z,22.47
2019-06-01T22:40:08.801Z,22.51
2019-06-01T22:42:41.756Z,22.46
2019-06-01T22:45:15.093Z,22.38
2019-06-01T22:47:48.380Z,22.29
2019-06-01T22:50:22.710Z,22.25
2019-06-01T22:52:55.956Z,22.22
2019-06-01T22:55:29.406Z,22.29
2019-06-01T22:58:02.763Z,22.35
2019-06-01T23:00:35.884Z,22.42
2019-06-01T23:03:09.115Z,22.39
2019-06-01T23:05:42.305Z,22.33
2019-06-01T23:08:16.692Z,22.29
2019-06-01T23:10:49.761Z,22.22
2019-06-01T23:13:24.100Z,22.27
2019-06-01T23:15:56.539Z,22.39
2019-06-01T23:18:29.898Z,22.45
2019-06-01T23:21:02.924Z,22.50
2019-06-01T23:23:37.749Z,22.47
2019-06-01T23:26:10.959Z,22.47
2019-06-01T23:28:45.353Z,22.46
2019-06-01T23:31:22.260Z,22.42
2019-06-01T23:33:55.533Z,22.42
2019-06-01T23:36:29.013Z,22.50
2019-06-01T23:39:02.297Z,22.58
2019-06-01T23:41:36.649Z,22.62
2019-06-01T23:44:12.128Z,22.57
2019-06-01T23:46:43.931Z,22.57
2019-06-01T23:49:18.308Z,22.54
2019-06-01T23:51:51.505Z,22.42
2019-06-01T23:54:25.778Z,22.36
2019-06-01T23:56:58.896Z,22.37
2019-06-01T23:59:32.521Z,22.35
